Terminal Aerodrome Forecast
Issued by NWS Green Bay, WI

Home | Current Version | Previous Version | Text Only | Print | Product List | Glossary On
Versions: 1 2 3 4 5 6 7 8 9 10 11 12 13 14 15 16
000
FTUS43 KGRB 222336
TAFGRB
TAF
KGRB 222336Z 2300/2324 26005KT P6SM VCSH OVC060
     FM230500 24004KT P6SM SCT060 BKN120
     FM230900 24003KT 3SM BR SKC
      TEMPO 2310/2313 1/2SM FG
     FM231300 19003KT P6SM SCT250
     FM231500 20008KT P6SM BKN120 BKN250
     FM231900 24007KT P6SM SCT025 BKN100
      TEMPO 2320/2324 5SM -SHRA BR BKN025=

USA.gov is the U.S. government's official web portal to all federal, state and local government web resources and services.